Time;durP1;ratioP1;P1;durP2;ratioP2;P2;SDS_P1;SDS_P2;PMS_P1;PMS_P2;Temp;Humidity;BMP_temperature;BMP_pressure;BME280_temperature;BME280_humidity;BME280_pressure;Samples;Min_cycle;Max_cycle;Signal;HPM_P1;HPM_P2
2023/04/11 00:01:18;;;;;;;26.93;20.60;;;;;;;8.16;100.00;99596.06;1724862;83;20925;-89
2023/04/11 00:03:44;;;;;;;31.00;18.92;;;;;;;7.85;100.00;99588.46;1664813;84;21034;-87
2023/04/11 00:06:11;;;;;;;28.87;21.62;;;;;;;7.87;100.00;99586.38;1667862;85;21114;-87
2023/04/11 00:08:38;;;;;;;28.60;21.62;;;;;;;8.10;100.00;99589.50;1681042;85;21506;-86
2023/04/11 00:11:06;;;;;;;27.82;20.37;;;;;;;7.73;100.00;99581.26;1657474;85;20966;-86
2023/04/11 00:13:33;;;;;;;31.40;22.60;;;;;;;8.04;100.00;99589.13;1622140;87;20942;-86
2023/04/11 00:16:02;;;;;;;30.80;20.92;;;;;;;8.23;100.00;99589.25;1642143;87;21236;-86
2023/04/11 00:18:30;;;;;;;28.25;20.08;;;;;;;7.93;100.00;99589.42;1617210;87;20960;-86
2023/04/11 00:20:56;;;;;;;31.33;22.35;;;;;;;7.94;100.00;99587.86;1653166;86;20913;-86
2023/04/11 00:23:24;;;;;;;31.73;20.88;;;;;;;7.98;100.00;99586.05;1654996;86;21020;-87
2023/04/11 00:25:51;;;;;;;36.10;24.60;;;;;;;8.02;100.00;99596.56;1642150;86;20913;-87
2023/04/11 00:28:19;;;;;;;28.45;22.07;;;;;;;7.90;100.00;99594.72;1637850;85;25385;-87
2023/04/11 00:30:46;;;;;;;32.13;21.90;;;;;;;8.09;100.00;99593.24;1643271;86;21108;-85
2023/04/11 00:33:15;;;;;;;30.53;21.60;;;;;;;8.04;100.00;99599.29;1649101;86;20834;-86
2023/04/11 00:35:42;;;;;;;28.92;22.37;;;;;;;8.02;100.00;99593.89;1646230;86;21430;-86
2023/04/11 00:38:09;;;;;;;31.73;23.27;;;;;;;8.11;100.00;99591.15;1647594;86;20924;-87
2023/04/11 00:40:35;;;;;;;25.82;20.20;;;;;;;8.10;100.00;99589.50;1651334;86;20987;-86
2023/04/11 00:43:04;;;;;;;33.90;23.02;;;;;;;8.35;100.00;99587.85;1676034;83;20960;-86
2023/04/11 00:45:31;;;;;;;32.00;21.42;;;;;;;8.15;100.00;99583.73;1705937;83;20834;-87
2023/04/11 00:47:58;;;;;;;26.68;19.52;;;;;;;8.34;100.00;99591.59;1702229;83;21345;-87
2023/04/11 00:50:24;;;;;;;28.45;21.42;;;;;;;8.40;100.00;99588.52;1697963;83;20882;-88
2023/04/11 00:52:51;;;;;;;29.18;20.45;;;;;;;8.32;100.00;99587.00;1685410;83;21054;-87
2023/04/11 00:55:17;;;;;;;30.97;21.48;;;;;;;8.16;100.00;99586.70;1659162;84;21826;-87
2023/04/11 00:57:45;;;;;;;29.15;20.65;;;;;;;8.18;100.00;99588.32;1698426;83;20890;-87
2023/04/11 01:00:13;;;;;;;23.83;18.92;;;;;;;8.33;100.00;99593.46;1701567;83;20843;-86
2023/04/11 01:02:43;;;;;;;26.57;20.15;;;;;;;8.36;100.00;99594.84;1706705;82;20884;-86
2023/04/11 01:05:14;;;;;;;31.48;21.52;;;;;;;8.35;100.00;99589.19;1713309;82;20907;-86
2023/04/11 01:07:42;;;;;;;27.30;19.52;;;;;;;8.22;100.00;99591.63;1718585;81;21086;-85
2023/04/11 01:10:09;;;;;;;25.80;20.55;;;;;;;8.22;100.00;99590.81;1721454;82;20894;-86
2023/04/11 01:12:36;;;;;;;28.95;20.48;;;;;;;8.20;100.00;99590.23;1709071;82;21406;-86
2023/04/11 01:15:04;;;;;;;26.27;19.37;;;;;;;7.86;100.00;99586.91;1733506;81;20972;-87
2023/04/11 01:17:31;;;;;;;;;;;;;;;7.91;100.00;99583.00;1727598;82;20830;-85
2023/04/11 01:19:59;;;;;;;27.13;19.32;;;;;;;7.91;100.00;99587.50;1725061;82;21643;-85
2023/04/11 01:22:26;;;;;;;29.35;20.10;;;;;;;7.43;100.00;99580.06;1729586;82;20901;-85
2023/04/11 01:24:52;;;;;;;29.65;19.95;;;;;;;7.67;100.00;99576.06;1733973;82;20941;-86
2023/04/11 01:27:19;;;;;;;27.62;19.95;;;;;;;7.90;100.00;99576.54;1717487;81;20929;-84
2023/04/11 01:29:45;;;;;;;29.23;20.12;;;;;;;8.03;100.00;99571.45;1720417;82;20981;-84
2023/04/11 01:32:13;;;;;;;29.70;21.37;;;;;;;8.08;100.00;99572.88;1706066;82;21366;-85
2023/04/11 01:34:41;;;;;;;31.93;21.90;;;;;;;8.30;100.00;99569.04;1725366;81;20882;-85
2023/04/11 01:37:07;;;;;;;31.30;21.65;;;;;;;8.12;100.00;99565.49;1714216;82;20866;-85
2023/04/11 01:39:34;;;;;;;29.60;20.27;;;;;;;7.97;100.00;99563.86;1717245;82;20957;-85
2023/04/11 01:42:01;;;;;;;32.63;21.12;;;;;;;8.04;100.00;99567.22;1729627;82;20937;-85
2023/04/11 01:44:30;;;;;;;29.12;21.10;;;;;;;7.79;100.00;99568.84;1736659;82;21800;-86
2023/04/11 01:46:56;;;;;;;33.18;23.10;;;;;;;7.77;100.00;99570.94;1735493;82;28109;-81
2023/04/11 01:49:27;;;;;;;29.63;22.77;;;;;;;7.85;100.00;99567.89;1733058;82;20888;-82
2023/04/11 01:51:54;;;;;;;31.48;20.97;;;;;;;8.29;100.00;99568.77;1733377;81;20942;-87
2023/04/11 01:54:21;;;;;;;29.07;20.65;;;;;;;8.07;100.00;99570.74;1720167;83;20930;-86
2023/04/11 01:56:47;;;;;;;29.82;21.97;;;;;;;8.02;100.00;99571.98;1720573;83;21145;-87
2023/04/11 01:59:14;;;;;;;29.30;21.85;;;;;;;7.68;100.00;99570.99;1719635;83;21404;-86
2023/04/11 02:01:43;;;;;;;30.32;20.50;;;;;;;8.02;100.00;99571.17;1721787;82;20925;-87
2023/04/11 02:04:09;;;;;;;30.60;21.95;;;;;;;7.81;100.00;99569.39;1707836;82;21084;-86
2023/04/11 02:06:38;;;;;;;29.90;20.43;;;;;;;7.79;100.00;99566.67;1742513;82;26784;-86
2023/04/11 02:09:06;;;;;;;32.60;23.57;;;;;;;7.87;100.00;99564.98;1735159;82;21180;-86
2023/04/11 02:11:33;;;;;;;31.27;21.68;;;;;;;7.92;100.00;99565.91;1713834;82;20901;-85
2023/04/11 02:14:01;;;;;;;31.10;21.87;;;;;;;8.17;100.00;99571.47;1692528;83;20937;-85
2023/04/11 02:16:29;;;;;;;29.67;22.20;;;;;;;8.07;100.00;99560.05;1705743;82;20881;-86
2023/04/11 02:18:57;;;;;;;27.22;19.62;;;;;;;8.03;100.00;99564.77;1716198;82;20937;-87
2023/04/11 02:21:24;;;;;;;29.82;22.65;;;;;;;7.99;100.00;99561.77;1706905;82;21691;-86
2023/04/11 02:23:52;;;;;;;30.25;22.10;;;;;;;8.25;100.00;99565.73;1727597;80;28614;-88
2023/04/11 02:26:20;;;;;;;29.77;21.37;;;;;;;8.42;100.00;99559.67;1695759;82;20932;-87
2023/04/11 02:28:47;;;;;;;32.45;23.98;;;;;;;8.50;100.00;99566.80;1741651;80;20933;-86
2023/04/11 02:31:13;;;;;;;32.58;24.37;;;;;;;8.49;100.00;99564.34;1703170;82;20861;-87
2023/04/11 02:33:42;;;;;;;29.05;21.87;;;;;;;8.75;100.00;99566.44;1715709;82;21206;-85
2023/04/11 02:36:11;;;;;;;32.23;22.73;;;;;;;8.43;100.00;99562.61;1718659;80;20906;-83
2023/04/11 02:38:38;;;;;;;31.68;23.02;;;;;;;8.60;100.00;99558.14;1719957;82;20818;-86
2023/04/11 02:41:07;;;;;;;28.38;21.45;;;;;;;8.54;100.00;99559.09;1721739;80;20953;-84
2023/04/11 02:43:34;;;;;;;34.83;23.75;;;;;;;8.54;100.00;99553.20;1735902;82;21431;-86
2023/04/11 02:46:01;;;;;;;32.73;22.62;;;;;;;8.83;100.00;99555.05;1735166;82;21061;-84
2023/04/11 02:48:30;;;;;;;;;;;;;;;8.92;100.00;99561.09;1738373;82;20953;-84
2023/04/11 02:50:56;;;;;;;29.37;21.05;;;;;;;8.94;100.00;99554.14;1709309;82;20096;-83
2023/04/11 02:53:24;;;;;;;33.18;22.73;;;;;;;8.80;100.00;99551.80;1713427;82;21415;-84
2023/04/11 02:55:52;;;;;;;34.60;24.45;;;;;;;7.81;100.00;99551.22;1703102;82;20822;-85
2023/04/11 02:58:20;;;;;;;29.37;23.57;;;;;;;7.32;100.00;99550.16;1732418;82;21216;-84
2023/04/11 03:00:48;;;;;;;30.23;22.70;;;;;;;7.27;100.00;99549.52;1722590;82;20977;-85
2023/04/11 03:03:16;;;;;;;30.90;21.23;;;;;;;7.26;100.00;99551.10;1699945;82;21396;-83
2023/04/11 03:05:45;;;;;;;33.40;21.95;;;;;;;7.34;100.00;99540.59;1726306;81;20946;-83
2023/04/11 03:08:12;;;;;;;31.85;24.20;;;;;;;6.86;100.00;99539.77;1723022;81;21071;-85
2023/04/11 03:10:42;;;;;;;31.00;22.58;;;;;;;6.96;100.00;99541.34;1733708;81;21239;-84
2023/04/11 03:13:10;;;;;;;;;;;;;;;6.77;100.00;99540.59;1702767;82;20909;-84
2023/04/11 03:15:37;;;;;;;31.90;21.70;;;;;;;6.68;100.00;99538.49;1722913;82;20397;-85
2023/04/11 03:18:06;;;;;;;31.77;23.38;;;;;;;6.96;100.00;99536.53;1739333;82;21396;-84
2023/04/11 03:20:35;;;;;;;31.70;22.17;;;;;;;7.07;100.00;99539.19;1736187;82;20972;-85
2023/04/11 03:23:03;;;;;;;34.03;22.95;;;;;;;7.14;100.00;99534.27;1723328;82;21399;-85
2023/04/11 03:25:30;;;;;;;32.35;22.82;;;;;;;7.48;100.00;99537.45;1735647;82;20870;-85
2023/04/11 03:27:57;;;;;;;33.48;23.65;;;;;;;7.59;100.00;99534.46;1736273;81;21060;-85
2023/04/11 03:30:24;;;;;;;36.53;25.37;;;;;;;7.45;100.00;99533.11;1718225;82;20900;-84
2023/04/11 03:32:52;;;;;;;30.47;23.50;;;;;;;7.64;100.00;99539.11;1729346;82;21384;-84
2023/04/11 03:35:19;;;;;;;33.75;23.32;;;;;;;7.72;100.00;99540.91;1711263;82;21632;-85
2023/04/11 03:37:47;;;;;;;40.85;23.47;;;;;;;7.59;100.00;99532.32;1717166;82;20930;-85
2023/04/11 03:40:13;;;;;;;36.13;25.32;;;;;;;7.60;100.00;99535.30;1710851;82;20920;-84
2023/04/11 03:42:42;;;;;;;;;;;;;;;7.46;100.00;99530.72;1725761;82;21468;-83
2023/04/11 03:45:10;;;;;;;29.52;22.60;;;;;;;7.73;100.00;99533.70;1650924;82;20074;-83
2023/04/11 03:47:39;;;;;;;34.27;24.07;;;;;;;7.76;100.00;99533.22;1719292;82;21400;-84
2023/04/11 03:50:07;;;;;;;40.20;26.17;;;;;;;7.87;100.00;99528.91;1717642;82;21633;-83
2023/04/11 03:52:36;;;;;;;34.88;23.73;;;;;;;7.87;100.00;99528.91;1726577;82;20917;-84
2023/04/11 03:55:05;;;;;;;34.20;23.47;;;;;;;8.04;100.00;99527.65;1729568;82;20877;-86
2023/04/11 03:57:32;;;;;;;34.13;24.05;;;;;;;7.84;100.00;99525.36;1752715;81;20893;-86
2023/04/11 04:00:00;;;;;;;31.85;23.55;;;;;;;8.31;100.00;99522.55;1728396;82;21201;-86
2023/04/11 04:02:26;;;;;;;31.37;23.40;;;;;;;8.26;100.00;99525.12;1726371;82;20934;-84
2023/04/11 04:05:00;;;;;;;31.60;22.20;;;;;;;8.36;100.00;99531.47;1698099;82;21033;-85
2023/04/11 04:07:26;;;;;;;32.10;22.75;;;;;;;8.47;100.00;99533.02;1733800;82;21025;-86
2023/04/11 04:09:55;;;;;;;34.38;23.00;;;;;;;8.67;100.00;99528.03;1718939;81;20883;-84
2023/04/11 04:12:21;;;;;;;29.55;22.75;;;;;;;8.52;100.00;99537.11;1707455;83;21259;-85
2023/04/11 04:14:51;;;;;;;31.17;21.42;;;;;;;8.96;100.00;99536.78;1713577;83;21380;-85
2023/04/11 04:17:20;;;;;;;28.85;20.40;;;;;;;8.58;100.00;99534.30;1716226;83;20830;-85
2023/04/11 04:19:47;;;;;;;31.85;21.73;;;;;;;8.61;100.00;99533.53;1682454;83;20934;-84
2023/04/11 04:22:16;;;;;;;;;;;;;;;8.50;100.00;99536.03;1718677;83;20962;-84
2023/04/11 04:24:46;;;;;;;26.15;18.82;;;;;;;8.80;100.00;99546.45;1716541;83;21629;-84
2023/04/11 04:27:23;;;;;;;30.32;21.35;;;;;;;9.16;100.00;99546.20;1715660;83;28006;-83
2023/04/11 04:29:52;;;;;;;33.58;22.32;;;;;;;9.38;100.00;99540.39;1716409;82;21008;-85
2023/04/11 04:32:22;;;;;;;30.72;21.10;;;;;;;9.53;100.00;99541.14;1712951;83;20997;-83
2023/04/11 04:34:54;;;;;;;32.67;21.90;;;;;;;9.59;100.00;99540.13;1715491;83;20953;-83
2023/04/11 04:37:28;;;;;;;29.60;22.87;;;;;;;9.47;100.00;99533.27;1717667;83;21103;-84
2023/04/11 04:40:06;;;;;;;30.10;22.25;;;;;;;9.86;100.00;99534.05;1693310;83;20867;-84
2023/04/11 04:42:29;;;;;;;28.75;20.88;;;;;;;9.94;100.00;99538.95;1672416;82;20964;-84
2023/04/11 04:45:00;;;;;;;29.87;22.48;;;;;;;10.15;100.00;99544.58;1716137;82;20925;-84
2023/04/11 04:47:32;;;;;;;29.02;19.82;;;;;;;10.32;100.00;99542.66;1688913;83;20866;-83
2023/04/11 04:49:58;;;;;;;31.68;22.37;;;;;;;10.56;100.00;99538.31;1715728;83;21222;-79
2023/04/11 04:52:26;;;;;;;28.60;21.68;;;;;;;10.65;100.00;99540.82;1707238;83;21325;-83
2023/04/11 04:54:58;;;;;;;23.20;18.90;;;;;;;10.62;100.00;99536.77;1717578;82;20913;-86
2023/04/11 04:57:33;;;;;;;24.43;17.70;;;;;;;10.88;100.00;99538.36;1718537;83;21410;-84
2023/04/11 05:00:10;;;;;;;19.60;15.85;;;;;;;11.15;100.00;99542.33;1709762;83;20863;-84
2023/04/11 05:02:32;;;;;;;25.08;17.25;;;;;;;10.55;100.00;99532.68;1701399;83;21101;-84
2023/04/11 05:05:02;;;;;;;23.07;17.45;;;;;;;10.58;100.00;99538.88;1718062;83;20904;-83
2023/04/11 05:07:28;;;;;;;24.45;17.85;;;;;;;10.90;100.00;99538.38;1714367;81;20899;-84
2023/04/11 05:09:56;;;;;;;21.62;17.32;;;;;;;11.17;100.00;99525.42;1724720;82;20839;-84
2023/04/11 05:12:26;;;;;;;20.23;16.40;;;;;;;11.29;100.00;99533.27;1710316;82;20862;-82
2023/04/11 05:14:55;;;;;;;25.02;17.02;;;;;;;11.25;100.00;99532.19;1705939;80;21865;-84
2023/04/11 05:17:25;;;;;;;25.62;17.10;;;;;;;11.28;100.00;99532.47;1706667;82;20905;-84
2023/04/11 05:19:51;;;;;;;20.47;16.27;;;;;;;11.22;100.00;99529.48;1735497;82;20834;-84
2023/04/11 05:22:18;;;;;;;20.68;16.97;;;;;;;11.58;100.00;99531.03;1721145;82;20941;-81
2023/04/11 05:24:47;;;;;;;20.37;16.00;;;;;;;11.55;100.00;99532.90;1729384;82;20929;-85
2023/04/11 05:27:14;;;;;;;23.02;16.23;;;;;;;11.67;100.00;99528.66;1723834;82;21242;-81
2023/04/11 05:29:41;;;;;;;19.20;15.95;;;;;;;11.77;100.00;99534.09;1703423;81;21396;-80
2023/04/11 05:32:09;;;;;;;21.02;16.12;;;;;;;11.67;100.00;99527.33;1707609;82;20866;-81
2023/04/11 05:34:52;;;;;;;25.27;18.25;;;;;;;12.14;100.00;99524.57;1714027;82;20909;-80
2023/04/11 05:37:20;;;;;;;27.37;16.87;;;;;;;12.26;100.00;99524.88;1731019;82;21349;-81
2023/04/11 05:39:47;;;;;;;18.17;14.18;;;;;;;12.13;100.00;99517.58;1724085;82;21126;-80
2023/04/11 05:42:16;;;;;;;22.95;15.98;;;;;;;12.32;100.00;99522.46;1703082;82;21387;-81
2023/04/11 05:44:43;;;;;;;23.15;15.63;;;;;;;11.84;100.00;99513.14;1730617;81;20925;-81
2023/04/11 05:47:10;;;;;;;18.50;15.32;;;;;;;12.34;100.00;99510.35;1711370;82;20910;-81
2023/04/11 05:49:38;;;;;;;23.40;15.32;;;;;;;11.67;100.00;99497.75;1719533;82;21321;-81
2023/04/11 05:52:04;;;;;;;19.77;15.80;;;;;;;11.45;100.00;99503.28;1728359;81;21046;-80
2023/04/11 05:54:33;;;;;;;23.65;15.85;;;;;;;11.78;100.00;99503.42;1718304;81;20897;-80
2023/04/11 05:57:03;;;;;;;20.37;15.13;;;;;;;11.96;100.00;99499.51;1718523;82;21413;-81
2023/04/11 05:59:31;;;;;;;20.37;15.18;;;;;;;12.01;100.00;99501.67;1735348;82;20854;-80
2023/04/11 06:01:58;;;;;;;18.37;15.18;;;;;;;12.52;100.00;99496.94;1723617;82;20909;-82
2023/04/11 06:04:25;;;;;;;21.82;17.00;;;;;;;12.41;100.00;99502.83;1718052;82;21182;-80
2023/04/11 06:06:52;;;;;;;26.70;18.40;;;;;;;12.27;100.00;99498.23;1729768;82;20898;-79
2023/04/11 06:09:19;;;;;;;23.70;16.12;;;;;;;12.24;100.00;99498.23;1714252;82;20969;-81
2023/04/11 06:11:45;;;;;;;24.30;15.50;;;;;;;12.50;100.00;99495.59;1719152;80;20941;-79
2023/04/11 06:14:12;;;;;;;16.55;13.53;;;;;;;12.64;100.00;99501.53;1705715;80;20957;-83
2023/04/11 06:16:39;;;;;;;16.60;13.22;;;;;;;13.02;95.33;99499.90;1741306;81;21858;-80
2023/04/11 06:19:05;;;;;;;16.87;13.20;;;;;;;12.50;95.73;99500.44;1734936;80;20817;-80
2023/04/11 06:21:33;;;;;;;20.67;15.10;;;;;;;12.00;100.00;99496.55;1722424;80;21463;-79
2023/04/11 06:24:06;;;;;;;18.82;13.75;;;;;;;12.22;100.00;99502.55;1705624;80;20898;-81
2023/04/11 06:26:34;;;;;;;17.25;12.73;;;;;;;12.43;100.00;99495.84;1735404;81;21439;-81
2023/04/11 06:29:03;;;;;;;17.32;13.70;;;;;;;12.45;100.00;99501.77;1734018;81;21212;-81
2023/04/11 06:31:30;;;;;;;16.77;12.55;;;;;;;12.70;100.00;99502.88;1725118;80;21455;-82
2023/04/11 06:33:58;;;;;;;17.82;12.07;;;;;;;12.56;99.86;99498.55;1739316;81;20936;-81
2023/04/11 06:36:26;;;;;;;16.85;12.37;;;;;;;12.41;92.77;99500.69;1745440;81;21324;-82
2023/04/11 06:38:53;;;;;;;19.80;13.43;;;;;;;12.70;92.55;99502.88;1723153;81;21368;-80
2023/04/11 06:41:19;;;;;;;15.38;12.35;;;;;;;12.87;90.07;99504.76;1709790;80;21825;-81
2023/04/11 06:43:46;;;;;;;17.95;11.50;;;;;;;12.91;90.59;99506.36;1726164;81;20893;-82
2023/04/11 06:46:13;;;;;;;17.48;12.00;;;;;;;12.87;88.33;99501.52;1731035;80;20971;-81
2023/04/11 06:48:41;;;;;;;17.73;11.55;;;;;;;12.94;90.36;99502.60;1736765;80;21400;-81
2023/04/11 06:51:09;;;;;;;14.00;11.05;;;;;;;12.90;85.49;99496.13;1705774;82;20878;-81
2023/04/11 06:53:36;;;;;;;15.58;12.28;;;;;;;13.24;80.39;99492.31;1738174;80;21200;-81
2023/04/11 06:56:03;;;;;;;22.52;12.88;;;;;;;13.67;73.59;99494.64;1746066;81;20976;-81
2023/04/11 06:58:30;;;;;;;17.77;11.75;;;;;;;13.44;75.34;99496.08;1745669;80;20972;-81
2023/04/11 07:00:57;;;;;;;17.17;11.50;;;;;;;13.48;69.15;99495.80;1714723;81;20961;-84
2023/04/11 07:03:25;;;;;;;15.30;12.25;;;;;;;14.09;64.42;99490.16;1737568;81;20866;-83
2023/04/11 07:05:52;;;;;;;18.37;12.33;;;;;;;13.42;63.87;99484.20;1730124;80;21198;-80
2023/04/11 07:08:19;;;;;;;18.50;13.68;;;;;;;13.16;69.13;99481.30;1703137;81;20878;-81
2023/04/11 07:10:47;;;;;;;14.30;10.98;;;;;;;13.48;62.20;99485.82;1683338;83;20836;-81
2023/04/11 07:13:14;;;;;;;15.83;11.80;;;;;;;13.14;64.53;99478.06;1705029;82;20902;-80
2023/04/11 07:15:42;;;;;;;;;;;;;;;13.79;61.23;99486.24;1707926;83;21342;-81
2023/04/11 07:18:10;;;;;;;14.18;11.45;;;;;;;14.39;59.94;99487.55;1711265;82;20115;-76
2023/04/11 07:20:36;;;;;;;23.98;12.37;;;;;;;14.67;57.19;99476.01;1700272;83;21432;-83
2023/04/11 07:23:03;;;;;;;20.75;11.83;;;;;;;14.78;55.89;99489.70;1724066;82;21008;-80
2023/04/11 07:25:29;;;;;;;16.97;11.10;;;;;;;14.77;56.56;99481.35;1700296;83;20945;-79
2023/04/11 07:27:56;;;;;;;14.60;10.10;;;;;;;14.72;54.49;99475.99;1692921;82;21033;-80
2023/04/11 07:30:24;;;;;;;;;;;;;;;15.18;51.37;99475.55;1702818;83;21595;-81
2023/04/11 07:32:56;;;;;;;18.00;11.40;;;;;;;15.25;51.64;99479.83;1704001;83;20153;-81
2023/04/11 07:35:23;;;;;;;18.80;13.32;;;;;;;15.43;51.62;99470.96;1711859;82;21059;-82
2023/04/11 07:37:52;;;;;;;18.12;10.30;;;;;;;15.32;50.58;99468.13;1713330;82;20937;-82
2023/04/11 07:40:18;;;;;;;14.03;9.93;;;;;;;15.39;49.39;99468.59;1703075;83;20866;-80
2023/04/11 07:42:45;;;;;;;18.42;9.45;;;;;;;15.61;47.97;99464.81;1731173;82;21205;-82
2023/04/11 07:45:12;;;;;;;11.53;9.55;;;;;;;15.58;45.52;99469.45;1731498;82;20988;-82
2023/04/11 07:47:40;;;;;;;15.35;9.83;;;;;;;15.35;44.89;99464.29;1718834;82;21468;-84
2023/04/11 07:50:06;;;;;;;13.48;9.20;;;;;;;15.04;43.98;99457.03;1719334;82;20954;-83
2023/04/11 07:52:34;;;;;;;14.78;10.75;;;;;;;15.03;42.53;99459.48;1722506;81;20808;-78
2023/04/11 07:55:01;;;;;;;14.67;9.63;;;;;;;15.09;43.81;99462.42;1708044;82;21045;-86
2023/04/11 07:57:28;;;;;;;17.80;9.90;;;;;;;15.01;43.13;99439.49;1711686;82;20901;-84
2023/04/11 07:59:59;;;;;;;19.80;11.55;;;;;;;15.06;43.83;99448.66;1726547;81;20965;-83
2023/04/11 08:02:25;;;;;;;13.75;9.73;;;;;;;14.80;43.37;99452.96;1709681;82;20973;-84
2023/04/11 08:04:52;;;;;;;15.95;9.63;;;;;;;14.93;44.48;99449.58;1726093;81;20873;-82
2023/04/11 08:07:19;;;;;;;14.00;10.33;;;;;;;15.17;43.60;99438.80;1725206;81;21042;-85
2023/04/11 08:09:46;;;;;;;13.98;10.03;;;;;;;15.54;42.29;99448.12;1705055;81;20902;-87
2023/04/11 08:12:12;;;;;;;19.77;13.28;;;;;;;15.15;42.93;99438.83;1709606;81;20866;-83
2023/04/11 08:14:42;;;;;;;12.78;10.35;;;;;;;15.26;44.40;99417.89;1735582;82;21016;-83
2023/04/11 08:17:13;;;;;;;18.98;10.28;;;;;;;15.14;43.13;99420.98;1720529;82;20807;-84
2023/04/11 08:19:38;;;;;;;;;;;;;;;15.89;42.79;99426.34;1721914;82;21775;-85
2023/04/11 08:22:05;;;;;;;13.88;9.48;;;;;;;15.53;42.94;99423.53;1735547;82;20108;-85
2023/04/11 08:24:32;;;;;;;13.13;9.83;;;;;;;15.59;43.17;99430.47;1736618;82;21061;-81
2023/04/11 08:26:59;;;;;;;12.43;9.78;;;;;;;15.37;43.86;99425.59;1731474;82;20934;-85
2023/04/11 08:29:27;;;;;;;17.00;10.08;;;;;;;16.16;41.37;99421.61;1716040;81;20918;-86
2023/04/11 08:31:54;;;;;;;13.40;8.75;;;;;;;16.26;41.65;99407.91;1740074;82;21160;-85
2023/04/11 08:34:21;;;;;;;14.55;8.55;;;;;;;15.80;40.96;99414.82;1725069;82;20889;-83
2023/04/11 08:36:48;;;;;;;11.28;9.15;;;;;;;15.06;42.25;99397.30;1727085;82;20864;-83
2023/04/11 08:39:15;;;;;;;15.75;10.28;;;;;;;15.30;42.17;99417.03;1703029;82;21423;-82
2023/04/11 08:41:43;;;;;;;14.45;9.88;;;;;;;15.54;42.60;99391.87;1717581;82;21440;-84
2023/04/11 08:44:11;;;;;;;15.43;10.20;;;;;;;15.95;40.86;99403.50;1736569;82;21170;-81
2023/04/11 08:46:42;;;;;;;16.10;10.55;;;;;;;16.45;43.42;99399.77;1736652;82;20942;-80
2023/04/11 08:49:09;;;;;;;14.33;9.18;;;;;;;16.62;40.76;99395.15;1725988;82;20917;-82
2023/04/11 08:51:36;;;;;;;13.63;8.43;;;;;;;16.74;40.52;99396.03;1714347;82;20981;-83
2023/04/11 08:54:04;;;;;;;13.98;8.35;;;;;;;16.35;39.49;99393.16;1714115;82;21666;-80
2023/04/11 08:56:34;;;;;;;12.45;8.15;;;;;;;16.13;40.28;99391.07;1704154;82;26744;-84
2023/04/11 08:59:02;;;;;;;12.20;7.67;;;;;;;16.17;38.62;99383.42;1703508;82;20865;-83
2023/04/11 09:01:31;;;;;;;9.03;7.93;;;;;;;16.18;38.56;99382.87;1725584;82;20926;-83
2023/04/11 09:04:01;;;;;;;12.10;7.78;;;;;;;16.21;38.40;99389.04;1735010;82;20866;-84
2023/04/11 09:06:31;;;;;;;8.68;7.28;;;;;;;16.27;38.65;99371.07;1725143;82;20937;-84
2023/04/11 09:09:04;;;;;;;10.75;8.20;;;;;;;16.27;38.65;99371.07;1723891;81;21084;-83
2023/04/11 09:11:30;;;;;;;12.95;9.23;;;;;;;16.56;38.63;99342.97;1717557;82;21384;-82
2023/04/11 09:14:07;;;;;;;16.25;9.15;;;;;;;16.21;39.48;99356.55;1703243;82;20857;-84
2023/04/11 09:16:34;;;;;;;11.30;9.05;;;;;;;16.41;40.84;99361.64;1720012;82;20953;-82
2023/04/11 09:19:01;;;;;;;10.82;8.68;;;;;;;16.47;38.87;99361.00;1729484;82;20886;-83
2023/04/11 09:21:30;;;;;;;13.32;10.88;;;;;;;16.79;39.25;99358.02;1703526;81;20887;-86
2023/04/11 09:24:14;;;;;;;11.70;10.32;;;;;;;16.87;38.57;99355.41;1710797;81;20933;-83
2023/04/11 09:26:42;;;;;;;11.38;7.78;;;;;;;16.64;39.52;99347.69;1647147;86;20949;-86
2023/04/11 09:29:10;;;;;;;8.93;6.58;;;;;;;16.70;38.68;99342.41;1587221;89;21432;-84
2023/04/11 09:32:02;;;;;;;12.47;8.90;;;;;;;16.83;38.13;99342.75;1588684;88;21269;-83
2023/04/11 09:34:28;;;;;;;15.95;12.40;;;;;;;17.04;39.08;99343.17;1594751;88;21964;-85
2023/04/11 09:36:55;;;;;;;10.68;7.85;;;;;;;17.12;38.40;99328.90;1594341;88;20872;-85
2023/04/11 09:39:23;;;;;;;11.38;7.62;;;;;;;16.91;39.51;99334.73;1590357;88;21394;-82
2023/04/11 09:41:49;;;;;;;9.95;8.33;;;;;;;17.11;38.56;99331.37;1593364;89;20883;-83
2023/04/11 09:44:16;;;;;;;8.90;6.62;;;;;;;17.19;39.07;99318.45;1588024;88;21359;-82
2023/04/11 09:46:58;;;;;;;10.23;7.58;;;;;;;17.03;39.08;99323.95;1588797;88;21314;-85
2023/04/11 09:49:25;;;;;;;11.22;7.28;;;;;;;17.11;39.96;99316.46;1544199;92;21026;-84
2023/04/11 09:51:53;;;;;;;9.85;7.28;;;;;;;17.22;39.52;99323.29;1542015;91;20937;-84
2023/04/11 09:54:21;;;;;;;9.40;7.47;;;;;;;17.20;39.69;99321.43;1544750;92;20962;-84
2023/04/11 09:56:48;;;;;;;9.60;7.55;;;;;;;17.44;39.70;99312.23;1540997;92;21092;-82
2023/04/11 09:59:16;;;;;;;9.00;7.35;;;;;;;17.25;39.16;99300.18;1530714;92;20959;-84
2023/04/11 10:01:42;;;;;;;12.80;7.53;;;;;;;16.97;39.37;99298.03;1539163;89;20977;-82
2023/04/11 10:04:12;;;;;;;11.48;7.03;;;;;;;17.04;40.74;99297.08;1578944;89;20987;-82
2023/04/11 10:07:11;;;;;;;12.45;7.65;;;;;;;17.15;40.14;99299.84;1621597;85;20900;-84
2023/04/11 10:09:41;;;;;;;12.18;9.30;;;;;;;17.03;38.97;99299.55;1619849;85;20951;-81
2023/04/11 10:12:10;;;;;;;10.88;7.78;;;;;;;17.40;39.14;99284.13;1639079;85;20955;-85
2023/04/11 10:14:41;;;;;;;9.35;7.62;;;;;;;17.22;40.34;99281.25;1625454;87;20880;-80
2023/04/11 10:17:17;;;;;;;13.10;9.00;;;;;;;17.09;39.67;99276.64;1595485;89;21435;-83
2023/04/11 10:19:46;;;;;;;13.93;7.65;;;;;;;16.72;40.23;99271.10;1590991;89;20954;-82
2023/04/11 10:22:45;;;;;;;8.93;7.00;;;;;;;16.46;40.92;99259.97;1575856;89;20908;-81
2023/04/11 10:25:23;;;;;;;9.68;7.10;;;;;;;16.37;41.00;99265.83;1598525;89;21382;-81
2023/04/11 10:27:59;;;;;;;;;;;;;;;16.67;40.42;99263.08;1558520;90;21121;-83
2023/04/11 10:30:46;;;;;;;8.50;6.17;;;;;;;17.33;39.79;99254.14;1552619;91;20120;-80
2023/04/11 10:33:17;;;;;;;16.48;9.10;;;;;;;17.33;39.79;99254.14;1551100;89;20943;-83
2023/04/11 10:36:08;;;;;;;10.63;7.33;;;;;;;16.74;39.10;99249.13;1566795;89;21501;-83
2023/04/11 10:38:44;;;;;;;11.45;7.15;;;;;;;16.92;39.63;99256.92;1552226;90;21328;-79
2023/04/11 10:41:32;;;;;;;12.10;8.13;;;;;;;16.95;40.33;99241.39;1546499;92;20906;-81
2023/04/11 10:44:23;;;;;;;17.00;9.85;;;;;;;16.85;41.34;99242.97;1551976;92;20919;-83
2023/04/11 10:46:52;;;;;;;16.80;11.55;;;;;;;16.53;40.80;99245.21;1518221;91;21007;-80
2023/04/11 10:49:37;;;;;;;9.25;7.33;;;;;;;16.82;39.75;99237.60;1515830;93;20988;-82
2023/04/11 10:52:23;;;;;;;14.60;7.22;;;;;;;16.76;39.78;99238.00;1522706;93;20971;-80
2023/04/11 10:54:51;;;;;;;8.20;5.75;;;;;;;17.49;40.53;99232.07;1560324;89;20933;-81
2023/04/11 10:57:18;;;;;;;7.12;6.42;;;;;;;17.71;38.86;99226.67;1580488;89;25411;-78
2023/04/11 10:59:56;;;;;;;8.68;7.15;;;;;;;17.40;39.09;99225.80;1585066;89;20964;-80
2023/04/11 11:02:23;;;;;;;;;;;;;;;16.84;40.06;99215.07;1594197;89;21074;-80
2023/04/11 11:04:50;;;;;;;11.68;7.45;;;;;;;16.39;40.98;99198.62;1602741;89;21397;-81
2023/04/11 11:07:17;;;;;;;12.47;7.53;;;;;;;16.70;41.71;99211.54;1584515;89;20900;-81
2023/04/11 11:09:48;;;;;;;8.28;6.83;;;;;;;16.50;42.23;99212.75;1588913;87;21540;-82
2023/04/11 11:12:15;;;;;;;9.40;7.40;;;;;;;16.42;41.71;99203.42;1614599;87;21471;-80
2023/04/11 11:14:45;;;;;;;11.43;8.28;;;;;;;16.46;41.43;99210.38;1636796;84;20954;-81
2023/04/11 11:17:14;;;;;;;11.33;8.53;;;;;;;16.25;42.12;99195.09;1691822;84;21682;-81
2023/04/11 11:19:46;;;;;;;9.65;7.00;;;;;;;16.34;42.34;99200.60;1698704;83;20984;-83
2023/04/11 11:22:16;;;;;;;11.48;6.78;;;;;;;16.33;41.66;99194.95;1678962;83;20924;-80
2023/04/11 11:24:42;;;;;;;13.55;7.60;;;;;;;16.63;41.33;99194.33;1698078;83;20890;-83
2023/04/11 11:27:22;;;;;;;15.50;7.33;;;;;;;16.48;42.48;99191.38;1708756;83;20905;-84
2023/04/11 11:29:50;;;;;;;15.45;8.38;;;;;;;16.71;42.14;99180.64;1674942;83;21260;-81